sensor_id;sensor_type;location;lat;lon;timestamp;temperature;humidity
21712;DHT22;11017;53.552;9.910;2023-06-10T00:01:38;16.60;99.90
21712;DHT22;11017;53.552;9.910;2023-06-10T00:04:06;16.70;99.90
21712;DHT22;11017;53.552;9.910;2023-06-10T00:06:33;16.70;99.90
21712;DHT22;11017;53.552;9.910;2023-06-10T00:09:02;16.50;99.90
21712;DHT22;11017;53.552;9.910;2023-06-10T00:11:31;16.20;99.90
21712;DHT22;11017;53.552;9.910;2023-06-10T00:13:58;16.30;99.90
21712;DHT22;11017;53.552;9.910;2023-06-10T00:16:26;16.30;99.90
21712;DHT22;11017;53.552;9.910;2023-06-10T00:18:54;16.40;99.90
21712;DHT22;11017;53.552;9.910;2023-06-10T00:21:26;16.30;99.90
21712;DHT22;11017;53.552;9.910;2023-06-10T00:23:53;16.30;99.90
21712;DHT22;11017;53.552;9.910;2023-06-10T00:26:21;16.30;99.90
21712;DHT22;11017;53.552;9.910;2023-06-10T00:28:48;16.40;99.90
21712;DHT22;11017;53.552;9.910;2023-06-10T00:31:15;16.30;99.90
21712;DHT22;11017;53.552;9.910;2023-06-10T00:33:44;16.10;99.90
21712;DHT22;11017;53.552;9.910;2023-06-10T00:36:11;16.20;99.90
21712;DHT22;11017;53.552;9.910;2023-06-10T00:38:37;16.10;99.90
21712;DHT22;11017;53.552;9.910;2023-06-10T00:41:06;16.10;99.90
21712;DHT22;11017;53.552;9.910;2023-06-10T00:43:33;16.10;99.90
21712;DHT22;11017;53.552;9.910;2023-06-10T00:46:00;16.10;99.90
21712;DHT22;11017;53.552;9.910;2023-06-10T00:48:27;15.80;99.90
21712;DHT22;11017;53.552;9.910;2023-06-10T00:50:56;15.60;99.90
21712;DHT22;11017;53.552;9.910;2023-06-10T00:53:23;15.70;99.90
21712;DHT22;11017;53.552;9.910;2023-06-10T00:55:50;15.80;99.90
21712;DHT22;11017;53.552;9.910;2023-06-10T00:58:18;15.70;99.90
21712;DHT22;11017;53.552;9.910;2023-06-10T01:00:45;15.80;99.90
21712;DHT22;11017;53.552;9.910;2023-06-10T01:03:12;15.70;99.90
21712;DHT22;11017;53.552;9.910;2023-06-10T01:05:39;15.60;99.90
21712;DHT22;11017;53.552;9.910;2023-06-10T01:08:16;15.60;99.90
21712;DHT22;11017;53.552;9.910;2023-06-10T01:10:50;15.50;99.90
21712;DHT22;11017;53.552;9.910;2023-06-10T01:13:17;15.40;99.90
21712;DHT22;11017;53.552;9.910;2023-06-10T01:15:46;15.50;99.90
21712;DHT22;11017;53.552;9.910;2023-06-10T01:18:13;15.60;99.90
21712;DHT22;11017;53.552;9.910;2023-06-10T01:20:43;15.50;99.90
21712;DHT22;11017;53.552;9.910;2023-06-10T01:23:13;15.30;99.90
21712;DHT22;11017;53.552;9.910;2023-06-10T01:25:41;15.10;99.90
21712;DHT22;11017;53.552;9.910;2023-06-10T01:28:17;15.10;99.90
21712;DHT22;11017;53.552;9.910;2023-06-10T01:30:49;15.10;99.90
21712;DHT22;11017;53.552;9.910;2023-06-10T01:33:24;15.10;99.90
21712;DHT22;11017;53.552;9.910;2023-06-10T01:35:53;15.10;99.90
21712;DHT22;11017;53.552;9.910;2023-06-10T01:38:22;15.30;99.90
21712;DHT22;11017;53.552;9.910;2023-06-10T01:40:52;15.50;99.90
21712;DHT22;11017;53.552;9.910;2023-06-10T01:43:20;15.50;99.90
21712;DHT22;11017;53.552;9.910;2023-06-10T01:45:47;15.50;99.90
21712;DHT22;11017;53.552;9.910;2023-06-10T01:48:14;15.50;99.90
21712;DHT22;11017;53.552;9.910;2023-06-10T01:50:41;15.30;99.90
21712;DHT22;11017;53.552;9.910;2023-06-10T01:53:09;15.30;99.90
21712;DHT22;11017;53.552;9.910;2023-06-10T01:55:37;15.10;99.90
21712;DHT22;11017;53.552;9.910;2023-06-10T01:58:04;15.20;99.90
21712;DHT22;11017;53.552;9.910;2023-06-10T02:00:31;15.20;99.90
21712;DHT22;11017;53.552;9.910;2023-06-10T02:02:58;15.00;99.90
21712;DHT22;11017;53.552;9.910;2023-06-10T02:05:25;15.00;99.90
21712;DHT22;11017;53.552;9.910;2023-06-10T02:07:52;14.90;99.90
21712;DHT22;11017;53.552;9.910;2023-06-10T02:10:19;14.80;99.90
21712;DHT22;11017;53.552;9.910;2023-06-10T02:12:47;15.10;99.90
21712;DHT22;11017;53.552;9.910;2023-06-10T02:15:14;15.10;99.90
21712;DHT22;11017;53.552;9.910;2023-06-10T02:17:41;14.90;99.90
21712;DHT22;11017;53.552;9.910;2023-06-10T02:20:08;15.00;99.90
21712;DHT22;11017;53.552;9.910;2023-06-10T02:22:36;15.00;99.90
21712;DHT22;11017;53.552;9.910;2023-06-10T02:25:04;14.80;99.90
21712;DHT22;11017;53.552;9.910;2023-06-10T02:27:31;15.00;99.90
21712;DHT22;11017;53.552;9.910;2023-06-10T02:30:00;15.00;99.90
21712;DHT22;11017;53.552;9.910;2023-06-10T02:32:27;14.90;99.90
21712;DHT22;11017;53.552;9.910;2023-06-10T02:34:55;15.00;99.90
21712;DHT22;11017;53.552;9.910;2023-06-10T02:37:22;14.90;99.90
21712;DHT22;11017;53.552;9.910;2023-06-10T02:39:48;15.00;99.90
21712;DHT22;11017;53.552;9.910;2023-06-10T02:42:15;15.10;99.90
21712;DHT22;11017;53.552;9.910;2023-06-10T02:44:42;15.10;99.90
21712;DHT22;11017;53.552;9.910;2023-06-10T02:47:10;15.10;99.90
21712;DHT22;11017;53.552;9.910;2023-06-10T02:49:37;15.10;99.90
21712;DHT22;11017;53.552;9.910;2023-06-10T02:52:05;15.10;99.90
21712;DHT22;11017;53.552;9.910;2023-06-10T02:54:32;14.90;99.90
21712;DHT22;11017;53.552;9.910;2023-06-10T02:56:59;14.90;99.90
21712;DHT22;11017;53.552;9.910;2023-06-10T02:59:26;15.00;99.90
21712;DHT22;11017;53.552;9.910;2023-06-10T03:01:54;14.90;99.90
21712;DHT22;11017;53.552;9.910;2023-06-10T03:04:22;14.80;99.90
21712;DHT22;11017;53.552;9.910;2023-06-10T03:06:51;15.00;99.90
21712;DHT22;11017;53.552;9.910;2023-06-10T03:09:18;14.90;99.90
21712;DHT22;11017;53.552;9.910;2023-06-10T03:11:44;14.80;99.90
21712;DHT22;11017;53.552;9.910;2023-06-10T03:14:11;14.90;99.90
21712;DHT22;11017;53.552;9.910;2023-06-10T03:16:38;15.20;99.90
21712;DHT22;11017;53.552;9.910;2023-06-10T03:19:06;15.10;99.90
21712;DHT22;11017;53.552;9.910;2023-06-10T03:21:35;15.10;99.90
21712;DHT22;11017;53.552;9.910;2023-06-10T03:24:03;15.30;99.90
21712;DHT22;11017;53.552;9.910;2023-06-10T03:26:30;15.20;99.90
21712;DHT22;11017;53.552;9.910;2023-06-10T03:28:57;15.00;99.90
21712;DHT22;11017;53.552;9.910;2023-06-10T03:31:24;14.80;99.90
21712;DHT22;11017;53.552;9.910;2023-06-10T03:33:51;14.80;99.90
21712;DHT22;11017;53.552;9.910;2023-06-10T03:36:18;14.90;99.90
21712;DHT22;11017;53.552;9.910;2023-06-10T03:38:46;15.00;99.90
21712;DHT22;11017;53.552;9.910;2023-06-10T03:41:13;14.80;99.90
21712;DHT22;11017;53.552;9.910;2023-06-10T03:43:40;14.80;99.90
21712;DHT22;11017;53.552;9.910;2023-06-10T03:46:07;14.80;99.90
21712;DHT22;11017;53.552;9.910;2023-06-10T03:48:34;14.90;99.90
21712;DHT22;11017;53.552;9.910;2023-06-10T03:51:02;15.10;99.90
21712;DHT22;11017;53.552;9.910;2023-06-10T03:53:28;15.10;99.90
21712;DHT22;11017;53.552;9.910;2023-06-10T03:55:57;15.10;99.90
21712;DHT22;11017;53.552;9.910;2023-06-10T03:58:24;15.10;99.90
21712;DHT22;11017;53.552;9.910;2023-06-10T04:00:51;15.20;99.90
21712;DHT22;11017;53.552;9.910;2023-06-10T04:03:19;15.30;99.90
21712;DHT22;11017;53.552;9.910;2023-06-10T04:05:46;15.30;99.90
21712;DHT22;11017;53.552;9.910;2023-06-10T04:08:13;15.50;99.90
21712;DHT22;11017;53.552;9.910;2023-06-10T04:10:40;15.40;99.90
21712;DHT22;11017;53.552;9.910;2023-06-10T04:13:08;15.40;99.90
21712;DHT22;11017;53.552;9.910;2023-06-10T04:15:35;15.20;99.90
21712;DHT22;11017;53.552;9.910;2023-06-10T04:18:04;15.20;99.90
21712;DHT22;11017;53.552;9.910;2023-06-10T04:20:30;15.40;99.90
21712;DHT22;11017;53.552;9.910;2023-06-10T04:22:57;15.40;99.90
21712;DHT22;11017;53.552;9.910;2023-06-10T04:25:25;15.50;99.90
21712;DHT22;11017;53.552;9.910;2023-06-10T04:27:52;15.60;99.90
21712;DHT22;11017;53.552;9.910;2023-06-10T04:30:21;15.40;99.90
21712;DHT22;11017;53.552;9.910;2023-06-10T04:32:48;15.50;99.90
21712;DHT22;11017;53.552;9.910;2023-06-10T04:35:15;15.60;99.90
21712;DHT22;11017;53.552;9.910;2023-06-10T04:37:42;15.50;99.90
21712;DHT22;11017;53.552;9.910;2023-06-10T04:40:10;15.60;99.90
21712;DHT22;11017;53.552;9.910;2023-06-10T04:42:37;15.70;99.90
21712;DHT22;11017;53.552;9.910;2023-06-10T04:45:05;15.70;99.90
21712;DHT22;11017;53.552;9.910;2023-06-10T04:47:33;15.60;99.90
21712;DHT22;11017;53.552;9.910;2023-06-10T04:50:00;15.60;99.90
21712;DHT22;11017;53.552;9.910;2023-06-10T04:52:27;15.70;99.90
21712;DHT22;11017;53.552;9.910;2023-06-10T04:54:54;15.70;99.90
21712;DHT22;11017;53.552;9.910;2023-06-10T04:57:21;15.50;99.90
21712;DHT22;11017;53.552;9.910;2023-06-10T04:59:48;15.70;99.90
21712;DHT22;11017;53.552;9.910;2023-06-10T05:02:15;15.70;99.90
21712;DHT22;11017;53.552;9.910;2023-06-10T05:04:43;15.80;99.90
21712;DHT22;11017;53.552;9.910;2023-06-10T05:07:10;15.90;99.90
21712;DHT22;11017;53.552;9.910;2023-06-10T05:09:37;16.10;99.90
21712;DHT22;11017;53.552;9.910;2023-06-10T05:12:05;16.10;99.90
21712;DHT22;11017;53.552;9.910;2023-06-10T05:14:32;16.20;99.90
21712;DHT22;11017;53.552;9.910;2023-06-10T05:16:59;16.30;99.90
21712;DHT22;11017;53.552;9.910;2023-06-10T05:19:26;16.20;99.90
21712;DHT22;11017;53.552;9.910;2023-06-10T05:21:54;16.30;99.90
21712;DHT22;11017;53.552;9.910;2023-06-10T05:24:21;16.20;99.90
21712;DHT22;11017;53.552;9.910;2023-06-10T05:26:48;16.00;99.90
21712;DHT22;11017;53.552;9.910;2023-06-10T05:29:15;16.10;99.90
21712;DHT22;11017;53.552;9.910;2023-06-10T05:31:42;16.30;99.90
21712;DHT22;11017;53.552;9.910;2023-06-10T05:34:09;16.50;99.90
21712;DHT22;11017;53.552;9.910;2023-06-10T05:36:36;16.60;99.90
21712;DHT22;11017;53.552;9.910;2023-06-10T05:39:04;16.60;99.90
21712;DHT22;11017;53.552;9.910;2023-06-10T05:41:31;16.70;99.90
21712;DHT22;11017;53.552;9.910;2023-06-10T05:43:58;16.70;99.90
21712;DHT22;11017;53.552;9.910;2023-06-10T05:46:25;16.50;99.90
21712;DHT22;11017;53.552;9.910;2023-06-10T05:48:52;16.60;99.90
21712;DHT22;11017;53.552;9.910;2023-06-10T05:51:19;16.80;99.90
21712;DHT22;11017;53.552;9.910;2023-06-10T05:53:46;16.90;99.90
21712;DHT22;11017;53.552;9.910;2023-06-10T05:56:14;17.00;99.90
21712;DHT22;11017;53.552;9.910;2023-06-10T05:58:41;17.10;99.90
21712;DHT22;11017;53.552;9.910;2023-06-10T06:01:08;17.10;99.90
21712;DHT22;11017;53.552;9.910;2023-06-10T06:03:35;17.00;99.90
21712;DHT22;11017;53.552;9.910;2023-06-10T06:06:02;16.90;99.90
21712;DHT22;11017;53.552;9.910;2023-06-10T06:08:29;16.90;99.90
21712;DHT22;11017;53.552;9.910;2023-06-10T06:10:56;17.00;99.90
21712;DHT22;11017;53.552;9.910;2023-06-10T06:13:24;17.10;99.90
21712;DHT22;11017;53.552;9.910;2023-06-10T06:15:51;17.30;99.90
21712;DHT22;11017;53.552;9.910;2023-06-10T06:18:18;17.40;99.90
21712;DHT22;11017;53.552;9.910;2023-06-10T06:20:45;17.30;99.90
21712;DHT22;11017;53.552;9.910;2023-06-10T06:23:12;17.30;99.90
21712;DHT22;11017;53.552;9.910;2023-06-10T06:25:39;17.20;99.90
21712;DHT22;11017;53.552;9.910;2023-06-10T06:28:06;17.30;99.90
21712;DHT22;11017;53.552;9.910;2023-06-10T06:30:35;17.40;99.90
21712;DHT22;11017;53.552;9.910;2023-06-10T06:33:02;17.50;99.90
21712;DHT22;11017;53.552;9.910;2023-06-10T06:35:31;17.60;99.90
21712;DHT22;11017;53.552;9.910;2023-06-10T06:37:58;17.70;99.90
21712;DHT22;11017;53.552;9.910;2023-06-10T06:40:32;17.80;99.90
21712;DHT22;11017;53.552;9.910;2023-06-10T06:42:59;17.90;99.90
21712;DHT22;11017;53.552;9.910;2023-06-10T06:45:26;18.00;99.90
21712;DHT22;11017;53.552;9.910;2023-06-10T06:47:54;18.20;99.90
21712;DHT22;11017;53.552;9.910;2023-06-10T06:50:21;18.50;99.90
21712;DHT22;11017;53.552;9.910;2023-06-10T06:52:48;18.70;99.90
21712;DHT22;11017;53.552;9.910;2023-06-10T06:55:15;18.70;99.90
21712;DHT22;11017;53.552;9.910;2023-06-10T06:57:42;18.80;99.90
21712;DHT22;11017;53.552;9.910;2023-06-10T07:00:10;18.90;99.90
21712;DHT22;11017;53.552;9.910;2023-06-10T07:02:37;19.00;99.90
21712;DHT22;11017;53.552;9.910;2023-06-10T07:05:06;19.10;99.90
21712;DHT22;11017;53.552;9.910;2023-06-10T07:07:33;18.80;99.90
21712;DHT22;11017;53.552;9.910;2023-06-10T07:10:00;18.90;99.90
21712;DHT22;11017;53.552;9.910;2023-06-10T07:12:27;18.90;99.90
21712;DHT22;11017;53.552;9.910;2023-06-10T07:14:54;19.20;99.90
21712;DHT22;11017;53.552;9.910;2023-06-10T07:17:20;19.30;99.90
21712;DHT22;11017;53.552;9.910;2023-06-10T07:19:47;19.50;99.90
21712;DHT22;11017;53.552;9.910;2023-06-10T07:22:16;19.60;99.90
21712;DHT22;11017;53.552;9.910;2023-06-10T07:24:43;19.50;99.90
21712;DHT22;11017;53.552;9.910;2023-06-10T07:27:10;19.40;99.90
21712;DHT22;11017;53.552;9.910;2023-06-10T07:29:37;19.50;99.90
21712;DHT22;11017;53.552;9.910;2023-06-10T07:32:04;19.80;99.90
21712;DHT22;11017;53.552;9.910;2023-06-10T07:34:31;20.00;99.90
21712;DHT22;11017;53.552;9.910;2023-06-10T07:36:58;20.00;99.90
21712;DHT22;11017;53.552;9.910;2023-06-10T07:39:26;19.90;99.90
21712;DHT22;11017;53.552;9.910;2023-06-10T07:41:53;19.90;99.90
21712;DHT22;11017;53.552;9.910;2023-06-10T07:44:22;20.40;99.90
21712;DHT22;11017;53.552;9.910;2023-06-10T07:46:49;20.70;99.90
21712;DHT22;11017;53.552;9.910;2023-06-10T07:49:16;20.60;99.90
21712;DHT22;11017;53.552;9.910;2023-06-10T07:51:43;20.60;99.90
21712;DHT22;11017;53.552;9.910;2023-06-10T07:54:10;20.70;99.90
21712;DHT22;11017;53.552;9.910;2023-06-10T07:56:39;21.00;99.90
21712;DHT22;11017;53.552;9.910;2023-06-10T07:59:06;20.90;99.90
21712;DHT22;11017;53.552;9.910;2023-06-10T08:01:38;21.00;99.90
21712;DHT22;11017;53.552;9.910;2023-06-10T08:04:05;21.20;99.90
21712;DHT22;11017;53.552;9.910;2023-06-10T08:06:33;21.50;99.90
21712;DHT22;11017;53.552;9.910;2023-06-10T08:09:00;21.50;99.90
21712;DHT22;11017;53.552;9.910;2023-06-10T08:11:27;21.50;99.90
21712;DHT22;11017;53.552;9.910;2023-06-10T08:13:56;21.70;99.90
21712;DHT22;11017;53.552;9.910;2023-06-10T08:16:23;21.60;99.90
21712;DHT22;11017;53.552;9.910;2023-06-10T08:18:50;21.30;99.90
21712;DHT22;11017;53.552;9.910;2023-06-10T08:21:17;21.40;99.90
21712;DHT22;11017;53.552;9.910;2023-06-10T08:23:44;21.60;99.90
21712;DHT22;11017;53.552;9.910;2023-06-10T08:26:11;21.60;99.90
21712;DHT22;11017;53.552;9.910;2023-06-10T08:28:38;21.90;99.90
21712;DHT22;11017;53.552;9.910;2023-06-10T08:31:06;22.20;99.90
21712;DHT22;11017;53.552;9.910;2023-06-10T08:33:33;22.30;99.90
21712;DHT22;11017;53.552;9.910;2023-06-10T08:36:00;22.30;99.90
21712;DHT22;11017;53.552;9.910;2023-06-10T08:38:27;22.40;99.90
21712;DHT22;11017;53.552;9.910;2023-06-10T08:40:56;22.40;99.90
21712;DHT22;11017;53.552;9.910;2023-06-10T08:43:30;22.50;99.90
21712;DHT22;11017;53.552;9.910;2023-06-10T08:46:01;22.60;99.90
21712;DHT22;11017;53.552;9.910;2023-06-10T08:48:30;22.50;99.90
21712;DHT22;11017;53.552;9.910;2023-06-10T08:50:57;22.70;99.90
21712;DHT22;11017;53.552;9.910;2023-06-10T08:53:26;22.50;99.90
21712;DHT22;11017;53.552;9.910;2023-06-10T08:55:59;23.20;99.90
21712;DHT22;11017;53.552;9.910;2023-06-10T08:58:27;23.70;99.90
21712;DHT22;11017;53.552;9.910;2023-06-10T09:00:55;24.90;99.90
21712;DHT22;11017;53.552;9.910;2023-06-10T09:03:23;26.10;99.90
21712;DHT22;11017;53.552;9.910;2023-06-10T09:05:52;27.20;99.90
21712;DHT22;11017;53.552;9.910;2023-06-10T09:08:20;27.20;99.90
21712;DHT22;11017;53.552;9.910;2023-06-10T09:10:47;26.90;99.90
21712;DHT22;11017;53.552;9.910;2023-06-10T09:13:15;27.30;99.90
21712;DHT22;11017;53.552;9.910;2023-06-10T09:15:44;27.70;99.90
21712;DHT22;11017;53.552;9.910;2023-06-10T09:18:11;27.40;99.90
21712;DHT22;11017;53.552;9.910;2023-06-10T09:20:38;27.00;99.90
21712;DHT22;11017;53.552;9.910;2023-06-10T09:23:07;27.30;99.90
21712;DHT22;11017;53.552;9.910;2023-06-10T09:25:35;28.00;99.90
21712;DHT22;11017;53.552;9.910;2023-06-10T09:28:03;28.30;99.90
21712;DHT22;11017;53.552;9.910;2023-06-10T09:30:31;29.50;99.90
21712;DHT22;11017;53.552;9.910;2023-06-10T09:33:00;29.50;99.90
21712;DHT22;11017;53.552;9.910;2023-06-10T09:35:29;28.90;99.90
21712;DHT22;11017;53.552;9.910;2023-06-10T09:37:57;28.40;99.90
21712;DHT22;11017;53.552;9.910;2023-06-10T09:40:26;29.00;99.90
21712;DHT22;11017;53.552;9.910;2023-06-10T09:42:55;28.30;99.90
21712;DHT22;11017;53.552;9.910;2023-06-10T09:45:23;29.00;99.90
21712;DHT22;11017;53.552;9.910;2023-06-10T09:47:54;29.30;99.90
21712;DHT22;11017;53.552;9.910;2023-06-10T09:50:21;29.00;99.90
21712;DHT22;11017;53.552;9.910;2023-06-10T09:52:48;29.40;99.90
21712;DHT22;11017;53.552;9.910;2023-06-10T09:55:16;29.00;99.90
21712;DHT22;11017;53.552;9.910;2023-06-10T09:57:44;29.80;99.90
21712;DHT22;11017;53.552;9.910;2023-06-10T10:00:16;30.30;99.90
21712;DHT22;11017;53.552;9.910;2023-06-10T10:02:47;30.90;99.90
21712;DHT22;11017;53.552;9.910;2023-06-10T10:05:15;30.90;99.90
21712;DHT22;11017;53.552;9.910;2023-06-10T10:07:43;30.60;99.90
21712;DHT22;11017;53.552;9.910;2023-06-10T10:10:11;30.30;99.90
21712;DHT22;11017;53.552;9.910;2023-06-10T10:12:39;30.20;99.90
21712;DHT22;11017;53.552;9.910;2023-06-10T10:15:09;30.20;99.90
21712;DHT22;11017;53.552;9.910;2023-06-10T10:17:44;30.80;99.50
21712;DHT22;11017;53.552;9.910;2023-06-10T10:20:14;30.60;99.90
21712;DHT22;11017;53.552;9.910;2023-06-10T10:22:43;30.70;99.90
21712;DHT22;11017;53.552;9.910;2023-06-10T10:25:16;31.00;99.90
21712;DHT22;11017;53.552;9.910;2023-06-10T10:27:47;31.00;98.70
21712;DHT22;11017;53.552;9.910;2023-06-10T10:30:17;31.10;99.50
21712;DHT22;11017;53.552;9.910;2023-06-10T10:32:54;31.70;99.10
21712;DHT22;11017;53.552;9.910;2023-06-10T10:35:23;32.20;97.80
21712;DHT22;11017;53.552;9.910;2023-06-10T10:37:52;31.50;97.60
21712;DHT22;11017;53.552;9.910;2023-06-10T10:40:21;31.30;97.50
21712;DHT22;11017;53.552;9.910;2023-06-10T10:42:48;31.40;98.20
21712;DHT22;11017;53.552;9.910;2023-06-10T10:45:18;31.40;97.80
21712;DHT22;11017;53.552;9.910;2023-06-10T10:47:46;31.70;97.60
21712;DHT22;11017;53.552;9.910;2023-06-10T10:50:19;32.00;96.80
21712;DHT22;11017;53.552;9.910;2023-06-10T10:52:53;31.70;96.10
21712;DHT22;11017;53.552;9.910;2023-06-10T10:55:21;32.30;96.30
21712;DHT22;11017;53.552;9.910;2023-06-10T10:57:55;32.50;96.20
21712;DHT22;11017;53.552;9.910;2023-06-10T11:00:29;32.60;96.70
21712;DHT22;11017;53.552;9.910;2023-06-10T11:03:04;32.60;96.90
21712;DHT22;11017;53.552;9.910;2023-06-10T11:05:39;34.30;96.30
21712;DHT22;11017;53.552;9.910;2023-06-10T11:08:07;35.20;94.40
21712;DHT22;11017;53.552;9.910;2023-06-10T11:10:36;34.50;93.40
21712;DHT22;11017;53.552;9.910;2023-06-10T11:13:07;33.70;94.20
21712;DHT22;11017;53.552;9.910;2023-06-10T11:15:39;34.10;93.50
21712;DHT22;11017;53.552;9.910;2023-06-10T11:18:13;33.90;93.40
21712;DHT22;11017;53.552;9.910;2023-06-10T11:20:45;34.20;93.90
21712;DHT22;11017;53.552;9.910;2023-06-10T11:23:35;34.60;92.80
21712;DHT22;11017;53.552;9.910;2023-06-10T11:26:18;34.60;92.20
21712;DHT22;11017;53.552;9.910;2023-06-10T11:29:09;33.80;92.70
21712;DHT22;11017;53.552;9.910;2023-06-10T11:31:44;33.90;91.70
21712;DHT22;11017;53.552;9.910;2023-06-10T11:34:13;33.40;91.90
21712;DHT22;11017;53.552;9.910;2023-06-10T11:36:41;32.50;92.20
21712;DHT22;11017;53.552;9.910;2023-06-10T11:39:11;32.30;93.40
21712;DHT22;11017;53.552;9.910;2023-06-10T11:41:39;31.80;92.60
21712;DHT22;11017;53.552;9.910;2023-06-10T11:44:08;32.60;93.10
21712;DHT22;11017;53.552;9.910;2023-06-10T11:46:35;33.70;92.30
21712;DHT22;11017;53.552;9.910;2023-06-10T11:49:05;33.00;92.70
21712;DHT22;11017;53.552;9.910;2023-06-10T11:51:34;33.60;92.80
21712;DHT22;11017;53.552;9.910;2023-06-10T11:54:02;34.20;92.10
21712;DHT22;11017;53.552;9.910;2023-06-10T11:56:30;33.70;92.30
21712;DHT22;11017;53.552;9.910;2023-06-10T11:58:58;33.40;92.10
21712;DHT22;11017;53.552;9.910;2023-06-10T12:01:30;32.80;92.80
21712;DHT22;11017;53.552;9.910;2023-06-10T12:03:59;33.10;92.40
21712;DHT22;11017;53.552;9.910;2023-06-10T12:06:37;32.80;92.90
21712;DHT22;11017;53.552;9.910;2023-06-10T12:09:03;33.50;92.50
21712;DHT22;11017;53.552;9.910;2023-06-10T12:11:31;34.80;92.10
21712;DHT22;11017;53.552;9.910;2023-06-10T12:13:58;35.10;91.60
21712;DHT22;11017;53.552;9.910;2023-06-10T12:16:25;34.90;91.40
21712;DHT22;11017;53.552;9.910;2023-06-10T12:19:01;34.10;91.70
21712;DHT22;11017;53.552;9.910;2023-06-10T12:21:31;34.30;92.00
21712;DHT22;11017;53.552;9.910;2023-06-10T12:24:03;34.50;91.80
21712;DHT22;11017;53.552;9.910;2023-06-10T12:26:37;34.10;91.50
21712;DHT22;11017;53.552;9.910;2023-06-10T12:29:26;33.90;91.60
21712;DHT22;11017;53.552;9.910;2023-06-10T12:31:59;34.20;92.40
21712;DHT22;11017;53.552;9.910;2023-06-10T12:34:32;35.20;91.30
21712;DHT22;11017;53.552;9.910;2023-06-10T12:37:01;33.80;91.40
21712;DHT22;11017;53.552;9.910;2023-06-10T12:39:30;34.60;91.20
21712;DHT22;11017;53.552;9.910;2023-06-10T12:41:57;34.70;91.10
21712;DHT22;11017;53.552;9.910;2023-06-10T12:44:31;34.50;90.60
21712;DHT22;11017;53.552;9.910;2023-06-10T12:46:59;34.20;90.50
21712;DHT22;11017;53.552;9.910;2023-06-10T12:49:26;34.20;90.60
21712;DHT22;11017;53.552;9.910;2023-06-10T12:51:53;34.30;90.60
21712;DHT22;11017;53.552;9.910;2023-06-10T12:54:22;34.40;90.80
21712;DHT22;11017;53.552;9.910;2023-06-10T12:56:49;35.00;90.30
21712;DHT22;11017;53.552;9.910;2023-06-10T12:59:16;35.20;90.20
21712;DHT22;11017;53.552;9.910;2023-06-10T13:01:43;35.10;89.80
21712;DHT22;11017;53.552;9.910;2023-06-10T13:04:10;34.70;90.00
21712;DHT22;11017;53.552;9.910;2023-06-10T13:06:38;34.80;89.30
21712;DHT22;11017;53.552;9.910;2023-06-10T13:09:08;34.20;87.80
21712;DHT22;11017;53.552;9.910;2023-06-10T13:11:36;34.80;88.40
21712;DHT22;11017;53.552;9.910;2023-06-10T13:14:04;35.10;88.70
21712;DHT22;11017;53.552;9.910;2023-06-10T13:16:32;35.00;88.40
21712;DHT22;11017;53.552;9.910;2023-06-10T13:18:59;35.00;88.10
21712;DHT22;11017;53.552;9.910;2023-06-10T13:21:28;35.30;87.80
21712;DHT22;11017;53.552;9.910;2023-06-10T13:23:55;35.00;87.90
21712;DHT22;11017;53.552;9.910;2023-06-10T13:26:22;35.00;87.50
21712;DHT22;11017;53.552;9.910;2023-06-10T13:28:51;35.10;87.80
21712;DHT22;11017;53.552;9.910;2023-06-10T13:31:18;35.50;88.20
21712;DHT22;11017;53.552;9.910;2023-06-10T13:33:46;35.20;86.90
21712;DHT22;11017;53.552;9.910;2023-06-10T13:36:13;35.20;87.00
21712;DHT22;11017;53.552;9.910;2023-06-10T13:38:40;35.40;87.30
21712;DHT22;11017;53.552;9.910;2023-06-10T13:41:07;35.20;87.10
21712;DHT22;11017;53.552;9.910;2023-06-10T13:43:35;34.80;85.80
21712;DHT22;11017;53.552;9.910;2023-06-10T13:46:03;34.70;86.80
21712;DHT22;11017;53.552;9.910;2023-06-10T13:48:30;35.40;85.30
21712;DHT22;11017;53.552;9.910;2023-06-10T13:50:57;35.30;85.40
21712;DHT22;11017;53.552;9.910;2023-06-10T13:53:25;35.30;85.90
21712;DHT22;11017;53.552;9.910;2023-06-10T13:55:52;36.90;86.60
21712;DHT22;11017;53.552;9.910;2023-06-10T13:58:19;37.30;86.20
21712;DHT22;11017;53.552;9.910;2023-06-10T14:00:46;37.00;85.90
21712;DHT22;11017;53.552;9.910;2023-06-10T14:03:14;36.40;86.20
21712;DHT22;11017;53.552;9.910;2023-06-10T14:05:41;36.10;86.60
21712;DHT22;11017;53.552;9.910;2023-06-10T14:08:08;35.30;86.80
21712;DHT22;11017;53.552;9.910;2023-06-10T14:10:35;34.80;88.30
21712;DHT22;11017;53.552;9.910;2023-06-10T14:13:02;34.50;88.70
21712;DHT22;11017;53.552;9.910;2023-06-10T14:15:29;34.60;89.60
21712;DHT22;11017;53.552;9.910;2023-06-10T14:17:56;35.50;89.40
21712;DHT22;11017;53.552;9.910;2023-06-10T14:20:24;35.30;89.00
21712;DHT22;11017;53.552;9.910;2023-06-10T14:22:52;34.70;89.60
21712;DHT22;11017;53.552;9.910;2023-06-10T14:25:19;34.70;89.20
21712;DHT22;11017;53.552;9.910;2023-06-10T14:27:46;34.10;89.20
21712;DHT22;11017;53.552;9.910;2023-06-10T14:30:14;34.40;90.00
21712;DHT22;11017;53.552;9.910;2023-06-10T14:32:41;34.50;90.20
21712;DHT22;11017;53.552;9.910;2023-06-10T14:35:08;33.80;90.00
21712;DHT22;11017;53.552;9.910;2023-06-10T14:37:36;33.60;90.10
21712;DHT22;11017;53.552;9.910;2023-06-10T14:40:04;33.90;90.10
21712;DHT22;11017;53.552;9.910;2023-06-10T14:42:32;34.20;89.90
21712;DHT22;11017;53.552;9.910;2023-06-10T14:44:59;33.00;90.20
21712;DHT22;11017;53.552;9.910;2023-06-10T14:47:26;33.80;90.20
21712;DHT22;11017;53.552;9.910;2023-06-10T14:49:52;34.40;89.60
21712;DHT22;11017;53.552;9.910;2023-06-10T14:52:19;33.60;90.40
21712;DHT22;11017;53.552;9.910;2023-06-10T14:54:47;33.80;90.40
21712;DHT22;11017;53.552;9.910;2023-06-10T14:57:14;34.10;90.00
21712;DHT22;11017;53.552;9.910;2023-06-10T14:59:41;34.00;90.30
21712;DHT22;11017;53.552;9.910;2023-06-10T15:02:08;34.30;90.10
21712;DHT22;11017;53.552;9.910;2023-06-10T15:04:35;34.10;89.40
21712;DHT22;11017;53.552;9.910;2023-06-10T15:07:02;34.90;89.80
21712;DHT22;11017;53.552;9.910;2023-06-10T15:09:29;34.30;89.50
21712;DHT22;11017;53.552;9.910;2023-06-10T15:11:58;34.70;89.10
21712;DHT22;11017;53.552;9.910;2023-06-10T15:14:26;32.90;90.10
21712;DHT22;11017;53.552;9.910;2023-06-10T15:16:53;33.20;90.10
21712;DHT22;11017;53.552;9.910;2023-06-10T15:19:21;33.50;89.40
21712;DHT22;11017;53.552;9.910;2023-06-10T15:21:48;33.20;89.20
21712;DHT22;11017;53.552;9.910;2023-06-10T15:24:15;33.60;89.40
21712;DHT22;11017;53.552;9.910;2023-06-10T15:26:42;34.40;88.70
21712;DHT22;11017;53.552;9.910;2023-06-10T15:29:10;34.10;89.60
21712;DHT22;11017;53.552;9.910;2023-06-10T15:31:37;33.60;89.90
21712;DHT22;11017;53.552;9.910;2023-06-10T15:34:04;33.70;88.80
21712;DHT22;11017;53.552;9.910;2023-06-10T15:36:32;33.20;89.70